Time;durP1;ratioP1;P1;durP2;ratioP2;P2;SDS_P1;SDS_P2;PMS_P1;PMS_P2;Temp;Humidity;BMP_temperature;BMP_pressure;BME280_temperature;BME280_humidity;BME280_pressure;Samples;Min_cycle;Max_cycle;Signal;HPM_P1;HPM_P2
2024/03/28 00:01:50;;;;;;;29.27;22.50;;;;;;;13.50;59.74;98244.78;4973299;28;20172;-78
2024/03/28 00:04:15;;;;;;;25.73;22.00;;;;;;;13.43;60.01;98243.34;4973164;28;20198;-79
2024/03/28 00:06:40;;;;;;;25.80;23.10;;;;;;;13.46;59.74;98235.34;4971912;28;20259;-79
2024/03/28 00:09:06;;;;;;;25.83;22.00;;;;;;;13.48;59.78;98231.75;4973426;28;20203;-79
2024/03/28 00:11:31;;;;;;;24.67;22.10;;;;;;;13.37;59.84;98227.88;4974713;28;20182;-79
2024/03/28 00:13:56;;;;;;;25.37;22.37;;;;;;;13.47;59.56;98229.22;4985797;28;20189;-79
2024/03/28 00:16:21;;;;;;;26.90;23.30;;;;;;;13.11;60.54;98228.03;4981205;28;20188;-80
2024/03/28 00:18:47;;;;;;;24.00;21.47;;;;;;;13.32;60.35;98226.28;4975116;28;20215;-79
2024/03/28 00:21:12;;;;;;;26.50;22.97;;;;;;;13.38;60.27;98230.47;4974748;28;20172;-79
2024/03/28 00:23:37;;;;;;;26.40;23.40;;;;;;;13.38;60.01;98222.63;4974677;28;20241;-80
2024/03/28 00:26:03;;;;;;;26.10;23.33;;;;;;;13.27;60.27;98227.41;4973728;28;20541;-80
2024/03/28 00:28:28;;;;;;;26.10;23.00;;;;;;;13.19;60.25;98226.88;4973745;28;20179;-79
2024/03/28 00:30:53;;;;;;;26.13;23.40;;;;;;;13.21;60.56;98223.28;4972989;28;20181;-79
2024/03/28 00:33:19;;;;;;;25.07;22.30;;;;;;;13.09;61.03;98208.94;4972386;28;20195;-78
2024/03/28 00:35:49;;;;;;;27.53;23.50;;;;;;;13.01;60.95;98208.41;4972543;28;20227;-78
2024/03/28 00:38:15;;;;;;;26.23;23.30;;;;;;;13.11;60.93;98212.34;4972666;28;20215;-79
2024/03/28 00:40:47;;;;;;;24.70;22.23;;;;;;;13.10;60.88;98212.41;4972701;28;20976;-78
2024/03/28 00:43:13;;;;;;;25.40;22.70;;;;;;;12.65;61.75;98209.00;4977191;28;20461;-78
2024/03/28 00:45:38;;;;;;;26.87;24.00;;;;;;;12.90;61.29;98208.84;4975944;28;20405;-77
2024/03/28 00:48:04;;;;;;;30.13;24.87;;;;;;;12.87;61.61;98211.59;4977665;28;20215;-78
2024/03/28 00:50:29;;;;;;;25.20;22.33;;;;;;;13.09;61.08;98213.31;4975893;28;20199;-78
2024/03/28 00:52:55;;;;;;;27.50;23.93;;;;;;;12.81;61.66;98219.66;4975648;28;20641;-77
2024/03/28 00:55:20;;;;;;;26.00;22.93;;;;;;;13.09;60.94;98208.09;4973425;28;20808;-80
2024/03/28 00:57:45;;;;;;;26.13;23.33;;;;;;;12.96;61.11;98202.50;4976367;28;20590;-78
2024/03/28 01:00:11;;;;;;;25.73;22.90;;;;;;;12.94;61.17;98191.28;4975766;28;20179;-78
2024/03/28 01:02:36;;;;;;;25.17;22.43;;;;;;;13.02;60.91;98188.34;4975561;28;20176;-78
2024/03/28 01:05:02;;;;;;;26.97;22.97;;;;;;;13.05;61.28;98183.81;4975002;28;20547;-78
2024/03/28 01:07:27;;;;;;;25.73;23.03;;;;;;;12.86;61.55;98169.81;4975384;28;20194;-78
2024/03/28 01:09:52;;;;;;;28.03;24.17;;;;;;;12.76;61.46;98164.13;4975596;28;20571;-77
2024/03/28 01:12:18;;;;;;;27.00;24.17;;;;;;;12.72;61.80;98178.19;4974856;28;20180;-79
2024/03/28 01:14:43;;;;;;;28.10;25.13;;;;;;;12.77;61.82;98177.13;4990395;28;20174;-78
2024/03/28 01:17:08;;;;;;;27.73;24.70;;;;;;;12.94;61.41;98165.13;4975339;28;20283;-78
2024/03/28 01:19:33;;;;;;;28.73;24.50;;;;;;;12.37;63.00;98167.41;4975498;28;20863;-79
2024/03/28 01:21:59;;;;;;;26.27;23.57;;;;;;;12.39;62.90;98165.56;4974707;28;20180;-78
2024/03/28 01:24:24;;;;;;;25.77;23.03;;;;;;;12.55;62.66;98171.91;4976102;28;20551;-79
2024/03/28 01:26:49;;;;;;;27.97;24.73;;;;;;;12.35;63.00;98164.00;4976218;28;20188;-78
2024/03/28 01:29:14;;;;;;;28.90;25.80;;;;;;;12.33;63.15;98161.44;4975881;28;20218;-78
2024/03/28 01:31:40;;;;;;;26.90;23.50;;;;;;;12.11;63.52;98162.28;4974890;28;20641;-79
2024/03/28 01:34:05;;;;;;;30.47;24.30;;;;;;;11.92;63.88;98161.22;4975370;28;20241;-77
2024/03/28 01:36:30;;;;;;;27.50;24.60;;;;;;;11.92;64.70;98156.88;4990285;28;20624;-77
2024/03/28 01:38:56;;;;;;;27.60;24.67;;;;;;;12.32;63.37;98149.28;4975518;28;20560;-78
2024/03/28 01:41:21;;;;;;;27.43;23.73;;;;;;;12.34;63.40;98157.94;4974888;28;20184;-78
2024/03/28 01:43:46;;;;;;;27.67;24.40;;;;;;;12.41;63.08;98156.78;4989725;28;20606;-78
2024/03/28 01:46:16;;;;;;;30.47;24.83;;;;;;;11.99;64.16;98154.03;4974824;28;20192;-80
2024/03/28 01:48:42;;;;;;;29.60;25.53;;;;;;;12.00;64.13;98151.41;4974310;28;20187;-78
2024/03/28 01:51:07;;;;;;;30.50;25.77;;;;;;;12.24;63.61;98153.97;4974735;28;20412;-78
2024/03/28 01:53:32;;;;;;;27.93;25.00;;;;;;;12.45;62.60;98150.50;4974469;28;20226;-79
2024/03/28 01:55:58;;;;;;;30.67;25.30;;;;;;;12.65;62.50;98138.41;4975268;28;20211;-78
2024/03/28 01:58:23;;;;;;;27.57;24.77;;;;;;;12.30;63.28;98127.63;4975934;28;20267;-78
2024/03/28 02:00:49;;;;;;;26.37;23.60;;;;;;;12.22;63.33;98122.69;4975352;28;20176;-79
2024/03/28 02:03:15;;;;;;;27.37;24.53;;;;;;;12.22;63.21;98120.06;4974879;28;20568;-79
2024/03/28 02:05:40;;;;;;;30.73;26.30;;;;;;;12.26;63.56;98118.19;4974657;28;20725;-80
2024/03/28 02:08:06;;;;;;;28.90;25.67;;;;;;;12.37;62.91;98121.22;4975285;28;21275;-79
2024/03/28 02:10:34;;;;;;;30.90;26.23;;;;;;;12.54;62.74;98114.47;4975187;28;20382;-78
2024/03/28 02:12:59;;;;;;;28.13;25.13;;;;;;;12.65;62.18;98130.59;4972954;28;20172;-79
2024/03/28 02:15:24;;;;;;;28.23;25.17;;;;;;;12.24;63.06;98131.28;4974632;28;20429;-78
2024/03/28 02:17:50;;;;;;;29.13;24.53;;;;;;;12.42;62.84;98128.88;4975309;28;20191;-78
2024/03/28 02:20:17;;;;;;;27.20;24.13;;;;;;;12.45;62.89;98127.00;4975193;28;20544;-79
2024/03/28 02:22:42;;;;;;;28.10;25.13;;;;;;;12.26;63.13;98128.66;4973550;28;20827;-78
2024/03/28 02:25:08;;;;;;;32.50;25.97;;;;;;;12.45;62.85;98116.53;4974207;28;20411;-78
2024/03/28 02:27:34;;;;;;;28.20;25.00;;;;;;;12.23;63.43;98115.69;4974326;28;20650;-78
2024/03/28 02:30:00;;;;;;;30.07;25.83;;;;;;;12.13;63.71;98110.81;4980657;28;20397;-77
2024/03/28 02:32:26;;;;;;;28.40;25.33;;;;;;;12.16;63.33;98119.47;4993625;28;20459;-78
2024/03/28 02:34:52;;;;;;;30.93;25.47;;;;;;;12.53;62.99;98110.16;4994077;28;20414;-77
2024/03/28 02:37:17;;;;;;;28.33;25.17;;;;;;;12.64;62.61;98110.56;4994431;28;20672;-79
2024/03/28 02:39:43;;;;;;;30.73;26.33;;;;;;;12.48;62.60;98107.72;4988668;28;20202;-78
2024/03/28 02:42:08;;;;;;;27.70;24.90;;;;;;;12.37;63.23;98099.50;4975932;28;20176;-78
2024/03/28 02:44:33;;;;;;;29.07;25.57;;;;;;;12.20;63.78;98103.59;4974680;28;20195;-78
2024/03/28 02:46:58;;;;;;;31.43;26.47;;;;;;;11.91;64.25;98105.56;4989589;28;20673;-78
2024/03/28 02:49:24;;;;;;;26.93;24.03;;;;;;;11.94;64.18;98115.03;4972118;28;20238;-78
2024/03/28 02:51:49;;;;;;;31.73;26.63;;;;;;;11.94;64.08;98112.44;4974153;28;20694;-78
2024/03/28 02:54:14;;;;;;;32.60;28.57;;;;;;;12.12;63.87;98122.19;4973925;28;20187;-78
2024/03/28 02:56:39;;;;;;;31.23;26.73;;;;;;;11.56;65.22;98125.16;4974049;28;20671;-79
2024/03/28 02:59:05;;;;;;;30.00;26.80;;;;;;;11.71;65.26;98108.91;4974647;28;20172;-78
2024/03/28 03:01:33;;;;;;;34.80;29.30;;;;;;;11.78;64.30;98107.81;4974194;28;20172;-78
2024/03/28 03:03:58;;;;;;;31.30;26.33;;;;;;;12.10;64.30;98097.91;4974396;28;20274;-78
2024/03/28 03:06:23;;;;;;;29.03;25.83;;;;;;;12.24;63.51;98079.06;5006334;23;20464;-75
2024/03/28 03:08:49;;;;;;;32.10;28.13;;;;;;;12.35;63.49;98077.78;4988752;28;20187;-76
2024/03/28 03:11:14;;;;;;;29.90;26.73;;;;;;;12.48;63.15;98080.75;4972952;28;20641;-76
2024/03/28 03:13:39;;;;;;;32.20;26.90;;;;;;;12.28;63.50;98100.69;4974020;28;20184;-76
2024/03/28 03:16:04;;;;;;;31.30;26.67;;;;;;;12.38;63.21;98096.81;4966599;28;20199;-77
2024/03/28 03:18:32;;;;;;;32.03;27.20;;;;;;;12.45;63.12;98084.34;4954473;28;20631;-75
2024/03/28 03:21:02;;;;;;;32.10;28.13;;;;;;;12.04;64.48;98090.31;4954312;28;20177;-76
2024/03/28 03:23:35;;;;;;;31.43;27.27;;;;;;;11.98;64.43;98098.38;4954487;28;20727;-76
2024/03/28 03:26:01;;;;;;;31.53;28.13;;;;;;;11.79;65.65;98114.69;4954412;28;20446;-76
2024/03/28 03:36:41;;;;;;;29.40;26.20;;;;;;;12.22;64.70;98127.91;4956631;28;20523;-77
2024/03/28 03:39:08;;;;;;;31.70;26.53;;;;;;;12.26;64.35;98126.88;4955397;28;20415;-76
2024/03/28 03:41:33;;;;;;;32.07;26.33;;;;;;;12.27;64.70;98125.09;4954670;28;20200;-77
2024/03/28 03:43:59;;;;;;;28.77;25.60;;;;;;;12.22;64.53;98122.69;4954152;28;20532;-76
2024/03/28 03:46:24;;;;;;;31.93;27.27;;;;;;;12.05;65.27;98138.16;4952858;28;20201;-77
2024/03/28 03:48:50;;;;;;;29.70;26.27;;;;;;;11.97;64.97;98133.22;4954715;28;20208;-76
2024/03/28 03:51:17;;;;;;;30.10;26.83;;;;;;;12.21;64.65;98135.81;4954482;29;20172;-76
2024/03/28 03:53:42;;;;;;;35.83;26.30;;;;;;;12.28;64.76;98135.50;4953978;28;20172;-77
2024/03/28 03:56:07;;;;;;;32.90;26.10;;;;;;;12.23;64.74;98128.75;4953946;28;20411;-76
2024/03/28 03:58:33;;;;;;;29.70;24.87;;;;;;;12.27;64.74;98130.31;4953920;29;20173;-76
2024/03/28 04:00:59;;;;;;;29.37;23.97;;;;;;;12.25;64.73;98122.56;4953908;29;20219;-76
2024/03/28 04:03:24;;;;;;;28.73;24.70;;;;;;;12.25;64.93;98111.28;4954022;28;20709;-77
2024/03/28 04:05:49;;;;;;;30.37;24.83;;;;;;;12.25;64.63;98104.28;4953674;28;20448;-76
2024/03/28 04:08:15;;;;;;;28.33;24.47;;;;;;;12.40;64.54;98094.13;4954220;29;20180;-77
2024/03/28 04:10:40;;;;;;;30.80;24.53;;;;;;;12.17;65.10;98098.50;4954250;28;20623;-76
2024/03/28 04:13:05;;;;;;;30.77;25.63;;;;;;;12.15;65.44;98094.25;4953767;28;20181;-77
2024/03/28 04:15:30;;;;;;;28.57;24.17;;;;;;;12.12;65.79;98095.22;4953964;29;20311;-77
2024/03/28 04:17:56;;;;;;;28.30;23.57;;;;;;;12.15;65.69;98089.03;4956843;28;20612;-76
2024/03/28 04:20:21;;;;;;;27.10;24.20;;;;;;;11.98;66.72;98087.09;4957096;29;20196;-76
2024/03/28 04:22:46;;;;;;;28.30;24.40;;;;;;;11.91;66.76;98084.69;4958516;28;20596;-77
2024/03/28 04:25:12;;;;;;;26.93;23.10;;;;;;;12.19;66.35;98086.25;4957988;28;20689;-77
2024/03/28 04:27:38;;;;;;;28.63;23.93;;;;;;;12.44;65.87;98078.25;4972575;28;20184;-77
2024/03/28 04:30:05;;;;;;;28.33;22.60;;;;;;;12.11;67.03;98083.94;4957937;28;20177;-76
2024/03/28 04:32:31;;;;;;;27.33;22.90;;;;;;;12.02;67.28;98078.22;4957880;28;20415;-77
2024/03/28 04:34:56;;;;;;;25.83;22.63;;;;;;;12.46;66.49;98075.56;4956788;28;20429;-77
2024/03/28 04:37:21;;;;;;;30.10;21.70;;;;;;;12.24;67.44;98070.38;4957880;28;20193;-77
2024/03/28 04:39:46;;;;;;;28.93;22.20;;;;;;;12.21;67.09;98067.91;4957884;28;20179;-77
2024/03/28 04:42:12;;;;;;;29.37;22.90;;;;;;;12.40;67.22;98071.47;4957543;28;20185;-76
2024/03/28 04:44:37;;;;;;;25.50;22.23;;;;;;;12.21;67.79;98068.75;4957432;28;20209;-76
2024/03/28 04:47:02;;;;;;;28.20;21.97;;;;;;;12.14;67.82;98067.28;4957104;28;20720;-76
2024/03/28 04:49:27;;;;;;;24.90;20.67;;;;;;;12.00;68.86;98065.25;4975319;28;20184;-76
2024/03/28 04:51:53;;;;;;;26.93;20.70;;;;;;;11.71;69.24;98067.16;4975208;28;20703;-77
2024/03/28 04:54:18;;;;;;;23.80;19.83;;;;;;;11.75;69.79;98055.69;4976549;28;20175;-77
2024/03/28 04:56:43;;;;;;;23.90;20.57;;;;;;;11.89;69.29;98063.00;4976619;28;20251;-76
2024/03/28 04:59:09;;;;;;;23.50;20.47;;;;;;;12.04;69.08;98061.59;4977886;28;20188;-75
2024/03/28 05:01:34;;;;;;;26.97;21.00;;;;;;;12.04;68.83;98061.59;4976906;28;20184;-76
2024/03/28 05:04:00;;;;;;;22.57;18.27;;;;;;;11.78;69.56;98063.44;4976752;28;20616;-77
2024/03/28 05:06:25;;;;;;;26.23;18.23;;;;;;;12.22;68.75;98060.00;4977515;28;20490;-77
2024/03/28 05:08:51;;;;;;;18.00;16.10;;;;;;;12.26;68.47;98055.50;4976545;28;20189;-77
2024/03/28 05:11:17;;;;;;;15.43;13.70;;;;;;;12.09;68.54;98067.47;4977151;28;20199;-77
2024/03/28 05:13:45;;;;;;;19.70;16.17;;;;;;;12.55;67.58;98056.06;4976373;28;20408;-76
2024/03/28 05:16:14;;;;;;;15.60;13.00;;;;;;;12.37;67.99;98053.31;4976671;28;20716;-76
2024/03/28 05:18:39;;;;;;;14.53;13.03;;;;;;;12.20;68.55;98050.53;4976116;28;20464;-75
2024/03/28 05:21:05;;;;;;;15.03;13.40;;;;;;;11.86;68.89;98044.00;4976069;28;20948;-76
2024/03/28 05:23:30;;;;;;;15.90;12.10;;;;;;;11.61;70.17;98042.34;4975665;28;20235;-76
2024/03/28 05:25:55;;;;;;;14.93;13.33;;;;;;;12.09;68.96;98033.50;4976116;28;20192;-75
2024/03/28 05:28:20;;;;;;;16.03;12.17;;;;;;;11.83;69.05;98041.50;4975045;28;20176;-76
2024/03/28 05:30:47;;;;;;;11.37;9.90;;;;;;;11.35;70.17;98040.69;4975926;28;20188;-77
2024/03/28 05:33:12;;;;;;;13.47;11.17;;;;;;;11.90;69.61;98027.31;4975937;28;20180;-77
2024/03/28 05:35:40;;;;;;;12.53;11.23;;;;;;;11.70;69.74;98034.13;4976332;28;20476;-77
2024/03/28 05:38:05;;;;;;;9.90;9.00;;;;;;;11.88;69.20;98039.56;4978719;28;20180;-76
2024/03/28 05:40:30;;;;;;;10.43;9.43;;;;;;;12.17;68.90;98037.59;4977392;28;20397;-76
2024/03/28 05:42:56;;;;;;;12.80;10.27;;;;;;;11.99;68.72;98041.78;4976700;28;20176;-77
2024/03/28 05:45:21;;;;;;;11.47;8.73;;;;;;;12.11;68.56;98039.53;4976105;28;20207;-76
2024/03/28 05:47:46;;;;;;;8.70;7.90;;;;;;;11.73;69.39;98031.44;4975656;28;20242;-77
2024/03/28 05:50:11;;;;;;;10.10;7.33;;;;;;;12.00;68.92;98041.75;4976106;28;20664;-76
2024/03/28 05:52:37;;;;;;;8.23;7.43;;;;;;;11.61;69.59;98031.91;4975821;28;20254;-76
2024/03/28 05:55:04;;;;;;;9.20;7.90;;;;;;;11.83;68.83;98041.50;4976146;28;20179;-77
2024/03/28 05:57:29;;;;;;;8.80;8.00;;;;;;;11.95;69.25;98031.47;4975562;28;20236;-76
2024/03/28 05:59:54;;;;;;;7.40;6.70;;;;;;;11.87;69.50;98017.84;4975328;28;20510;-77
2024/03/28 06:02:20;;;;;;;8.57;7.77;;;;;;;11.53;70.50;98020.88;4975480;28;20541;-77
2024/03/28 06:04:45;;;;;;;8.10;6.90;;;;;;;11.83;69.49;98016.25;4975032;28;20264;-76
2024/03/28 06:07:10;;;;;;;7.20;6.23;;;;;;;11.93;69.16;98022.81;4970746;28;20765;-77
2024/03/28 06:09:36;;;;;;;6.60;6.00;;;;;;;11.49;69.96;98028.00;4956170;28;20176;-76
2024/03/28 06:12:01;;;;;;;6.63;6.03;;;;;;;11.64;70.33;98016.13;4956192;28;20590;-76
2024/03/28 06:14:26;;;;;;;6.97;6.27;;;;;;;11.44;70.28;98012.50;4955872;28;20296;-76
2024/03/28 06:16:51;;;;;;;6.17;5.60;;;;;;;11.15;71.21;98008.38;4956014;28;20692;-77
2024/03/28 06:19:16;;;;;;;6.50;5.90;;;;;;;11.49;70.23;98006.25;4955797;28;20172;-75
2024/03/28 06:21:45;;;;;;;14.43;11.60;;;;;;;11.69;69.55;98008.97;4955794;28;20260;-77
2024/03/28 06:24:10;;;;;;;32.00;21.90;;;;;;;11.34;70.52;98008.56;4956246;28;20188;-77
2024/03/28 06:26:36;;;;;;;13.97;11.03;;;;;;;11.27;70.94;98005.31;4954955;28;20466;-76
2024/03/28 06:29:01;;;;;;;5.60;5.00;;;;;;;10.64;71.53;98011.94;4954287;29;20200;-75
2024/03/28 06:31:27;;;;;;;6.90;6.20;;;;;;;11.57;70.10;97999.00;4955564;28;20654;-77
2024/03/28 06:33:52;;;;;;;7.13;6.30;;;;;;;11.55;70.27;98009.47;4955556;28;20201;-75
2024/03/28 06:36:17;;;;;;;26.70;19.93;;;;;;;11.51;69.98;98010.50;4955364;28;20256;-77
2024/03/28 06:38:42;;;;;;;7.20;6.50;;;;;;;11.26;69.96;98018.44;4955776;28;20173;-76
2024/03/28 06:41:08;;;;;;;5.20;4.80;;;;;;;11.36;70.05;98004.13;4955541;28;20208;-76
2024/03/28 06:43:33;;;;;;;6.27;5.67;;;;;;;11.34;70.01;98007.69;4955434;28;20291;-77
2024/03/28 06:45:58;;;;;;;7.00;6.40;;;;;;;11.36;70.31;98003.28;4955414;29;20212;-76
2024/03/28 06:48:25;;;;;;;6.60;6.00;;;;;;;11.50;70.04;98000.13;4963497;28;20227;-77
2024/03/28 06:50:50;;;;;;;6.87;6.17;;;;;;;11.90;68.74;97988.97;4975110;28;20176;-77
2024/03/28 06:53:15;;;;;;;8.93;8.03;;;;;;;11.62;69.35;98003.13;4974713;28;20416;-76
2024/03/28 06:55:41;;;;;;;6.47;5.73;;;;;;;11.73;69.00;98010.56;4974219;28;20199;-77
2024/03/28 06:58:06;;;;;;;6.50;5.77;;;;;;;11.62;69.69;98003.13;4974063;28;20658;-77
2024/03/28 07:00:32;;;;;;;6.63;6.03;;;;;;;11.10;70.86;98005.94;4974581;28;20172;-76
2024/03/28 07:02:57;;;;;;;5.67;5.17;;;;;;;11.25;70.84;98003.69;4974707;28;20255;-77
2024/03/28 07:05:23;;;;;;;5.23;4.70;;;;;;;11.03;70.80;98011.44;4974168;28;20176;-76
2024/03/28 07:07:49;;;;;;;5.40;4.93;;;;;;;11.14;70.77;98011.06;4974036;28;20179;-76
2024/03/28 07:10:14;;;;;;;6.40;5.17;;;;;;;11.59;69.96;98010.22;4974035;28;20433;-76
2024/03/28 07:12:39;;;;;;;6.80;5.23;;;;;;;10.89;70.89;98014.53;4973780;28;20207;-77
2024/03/28 07:15:05;;;;;;;6.77;5.13;;;;;;;11.44;70.95;98014.28;4974343;28;20172;-77
2024/03/28 07:17:30;;;;;;;7.03;5.40;;;;;;;11.31;70.71;98016.47;4974060;28;20278;-78
2024/03/28 07:19:56;;;;;;;6.93;5.67;;;;;;;11.67;70.21;98023.81;4975439;28;20176;-78
2024/03/28 07:22:22;;;;;;;5.70;5.20;;;;;;;11.14;70.59;98018.88;4975427;28;20179;-78
2024/03/28 07:24:47;;;;;;;5.43;4.93;;;;;;;11.17;71.27;98019.59;4975927;28;20235;-76
2024/03/28 07:27:12;;;;;;;5.40;4.90;;;;;;;11.29;70.60;98020.91;4973793;28;20196;-78
2024/03/28 07:29:38;;;;;;;5.37;4.87;;;;;;;10.98;71.23;98022.03;4975895;28;20173;-77
2024/03/28 07:32:03;;;;;;;6.20;5.60;;;;;;;11.25;70.95;98012.34;4974377;28;20172;-76
2024/03/28 07:34:29;;;;;;;5.40;4.90;;;;;;;11.08;71.17;98010.38;4974470;28;20165;-78
2024/03/28 07:36:54;;;;;;;5.80;4.93;;;;;;;11.20;70.93;98014.25;4975384;28;20248;-78
2024/03/28 07:39:22;;;;;;;5.40;4.90;;;;;;;11.51;70.28;98020.09;4976858;28;20329;-76
2024/03/28 07:41:48;;;;;;;5.60;5.10;;;;;;;11.13;70.91;98020.63;4975103;28;20180;-77
2024/03/28 07:44:13;;;;;;;5.13;4.43;;;;;;;11.37;70.16;98012.81;4975395;28;20449;-77
2024/03/28 07:46:38;;;;;;;5.27;4.77;;;;;;;10.96;70.49;98013.44;4975497;28;20272;-78
2024/03/28 07:49:04;;;;;;;4.80;4.40;;;;;;;11.09;70.44;98006.00;4975854;28;20211;-77
2024/03/28 07:51:29;;;;;;;5.40;4.53;;;;;;;11.15;70.46;98008.38;4974903;28;20190;-77
2024/03/28 07:53:55;;;;;;;6.90;4.57;;;;;;;11.63;69.43;98003.97;4978750;28;20378;-76
2024/03/28 07:56:20;;;;;;;5.60;4.90;;;;;;;11.23;69.73;98000.25;4977913;28;21028;-77
2024/03/28 07:58:45;;;;;;;4.50;4.10;;;;;;;11.28;69.55;98008.78;4979641;28;20174;-76
2024/03/28 08:01:11;;;;;;;5.07;4.23;;;;;;;11.22;70.36;98009.00;4980024;28;20200;-78
2024/03/28 08:03:37;;;;;;;5.03;4.10;;;;;;;11.11;69.99;98002.44;4980331;28;20204;-77
2024/03/28 08:06:04;;;;;;;4.80;4.00;;;;;;;11.36;70.36;98006.72;4979456;28;20413;-77
2024/03/28 08:08:30;;;;;;;5.00;4.07;;;;;;;11.08;70.25;98001.69;4980343;28;20411;-77
2024/03/28 08:10:55;;;;;;;4.60;4.20;;;;;;;10.96;70.49;98003.00;4979473;28;20456;-76
2024/03/28 08:13:20;;;;;;;5.50;5.00;;;;;;;10.94;70.11;98004.78;4981197;28;20200;-77
2024/03/28 08:15:46;;;;;;;5.00;4.50;;;;;;;11.18;69.88;98017.88;4982606;28;20203;-78
2024/03/28 08:18:11;;;;;;;4.20;3.80;;;;;;;11.03;70.15;98024.50;4981446;28;20172;-79
2024/03/28 08:20:36;;;;;;;4.60;4.20;;;;;;;11.23;69.51;98021.13;4980522;28;20539;-76
2024/03/28 08:23:02;;;;;;;4.17;3.70;;;;;;;11.35;69.16;98020.69;4980085;28;20183;-78
2024/03/28 08:25:27;;;;;;;6.43;4.60;;;;;;;11.01;69.35;98021.91;4982277;28;20172;-78
2024/03/28 08:27:53;;;;;;;4.10;3.70;;;;;;;11.03;69.47;98027.09;4980035;28;20199;-77
2024/03/28 08:30:19;;;;;;;4.87;4.47;;;;;;;10.92;70.22;98038.75;4981691;28;20181;-79
2024/03/28 08:32:44;;;;;;;4.80;4.40;;;;;;;11.03;70.06;98040.13;4981052;28;20204;-79
2024/03/28 08:35:13;;;;;;;6.80;4.70;;;;;;;10.88;70.71;98041.50;4979349;28;20408;-76
2024/03/28 08:37:39;;;;;;;6.13;5.53;;;;;;;11.10;70.54;98044.22;4979249;28;20279;-79
2024/03/28 08:40:09;;;;;;;6.13;5.50;;;;;;;11.35;69.92;98043.31;4980187;28;20387;-77
2024/03/28 08:42:43;;;;;;;7.80;6.40;;;;;;;11.37;69.64;98044.94;4979198;28;20181;-78
2024/03/28 08:45:09;;;;;;;7.83;7.03;;;;;;;11.40;69.81;98039.59;4978033;28;20459;-77
2024/03/28 08:47:38;;;;;;;8.90;7.90;;;;;;;11.05;69.99;98041.75;4977851;28;20784;-77
2024/03/28 08:50:04;;;;;;;8.53;6.63;;;;;;;11.01;70.65;98042.75;4977164;28;20939;-76
2024/03/28 08:52:36;;;;;;;9.60;7.97;;;;;;;11.08;70.41;98046.00;4975901;28;21091;-77
2024/03/28 08:55:02;;;;;;;8.03;7.23;;;;;;;11.49;69.86;98046.25;4975317;28;20410;-76
2024/03/28 08:57:27;;;;;;;8.70;7.80;;;;;;;11.43;69.49;98052.56;4976764;28;20406;-77
2024/03/28 08:59:54;;;;;;;8.67;7.80;;;;;;;11.67;69.35;98042.09;4991467;28;20238;-77
2024/03/28 09:02:20;;;;;;;9.50;8.50;;;;;;;11.07;70.51;98037.34;4976373;28;20490;-77
2024/03/28 09:04:46;;;;;;;8.90;8.00;;;;;;;10.96;71.10;98036.88;4975289;28;20468;-77
2024/03/28 09:07:12;;;;;;;9.60;8.43;;;;;;;11.31;69.22;98041.72;5011650;23;20473;-76
2024/03/28 09:09:37;;;;;;;10.13;8.93;;;;;;;11.48;69.15;98041.09;4995928;28;20561;-76
2024/03/28 09:12:03;;;;;;;8.90;7.80;;;;;;;10.41;71.37;98053.47;4997281;28;20865;-77
2024/03/28 09:14:28;;;;;;;10.37;8.17;;;;;;;11.07;69.27;98050.38;4997781;28;20176;-76
2024/03/28 09:16:53;;;;;;;9.23;8.20;;;;;;;11.25;69.26;98064.50;4996761;28;20199;-77
2024/03/28 09:19:21;;;;;;;8.57;7.70;;;;;;;10.99;69.25;98064.56;4995625;28;20175;-77
2024/03/28 09:21:46;;;;;;;8.70;7.80;;;;;;;10.83;70.34;98057.31;4995252;28;20172;-77
2024/03/28 09:24:13;;;;;;;9.03;7.63;;;;;;;11.80;68.38;98058.97;4994894;28;20441;-76
2024/03/28 09:26:38;;;;;;;8.57;7.40;;;;;;;11.50;68.85;98066.22;4996353;28;20187;-77
2024/03/28 09:29:04;;;;;;;8.80;7.90;;;;;;;12.17;67.25;98064.56;4994151;28;20426;-76
2024/03/28 09:31:29;;;;;;;8.17;7.43;;;;;;;11.51;68.11;98061.84;4995297;28;20254;-77
2024/03/28 09:33:54;;;;;;;8.00;7.20;;;;;;;12.11;67.40;98068.25;4996377;28;20203;-76
2024/03/28 09:36:20;;;;;;;8.20;7.00;;;;;;;11.85;67.10;98071.84;4995787;28;20195;-77
2024/03/28 09:38:50;;;;;;;7.67;6.90;;;;;;;11.82;66.92;98077.19;4997286;28;20183;-78
2024/03/28 09:41:29;;;;;;;7.37;6.67;;;;;;;12.13;66.81;98081.25;5011651;28;20183;-77
2024/03/28 09:44:05;;;;;;;7.53;6.60;;;;;;;12.50;66.73;98077.16;4993954;28;20571;-76
2024/03/28 09:46:33;;;;;;;6.73;6.10;;;;;;;12.00;67.03;98080.91;4995482;28;20431;-76
2024/03/28 09:48:59;;;;;;;6.20;5.63;;;;;;;12.70;66.07;98076.31;4980973;28;20916;-79
2024/03/28 09:51:26;;;;;;;5.63;5.13;;;;;;;12.17;65.73;98074.16;4975283;28;20494;-75
2024/03/28 09:53:53;;;;;;;6.10;5.57;;;;;;;12.88;65.23;98066.00;4973350;28;20426;-78
2024/03/28 09:56:21;;;;;;;6.47;5.87;;;;;;;12.68;65.74;98061.63;4975203;28;20696;-76
2024/03/28 09:58:46;;;;;;;6.93;6.23;;;;;;;13.37;64.64;98063.91;4975934;28;20533;-76
2024/03/28 10:01:13;;;;;;;5.43;4.93;;;;;;;12.81;64.77;98088.94;4976773;28;20390;-77
2024/03/28 10:03:42;;;;;;;5.80;4.87;;;;;;;12.90;64.25;98079.88;4980022;28;20200;-77
2024/03/28 10:06:07;;;;;;;9.33;7.83;;;;;;;12.87;64.07;98077.41;4975458;28;20424;-76
2024/03/28 10:08:33;;;;;;;4.63;4.23;;;;;;;12.71;64.21;98090.25;4990170;28;20427;-76
2024/03/28 10:10:59;;;;;;;4.30;3.90;;;;;;;12.82;64.76;98085.41;4993906;28;20667;-76
2024/03/28 10:13:38;;;;;;;4.00;3.70;;;;;;;12.24;64.16;98094.72;4994040;28;20168;-76
2024/03/28 10:16:06;;;;;;;4.23;3.87;;;;;;;12.16;64.49;98095.97;4992631;28;20476;-76
2024/03/28 10:18:32;;;;;;;3.70;3.40;;;;;;;12.53;63.65;98082.28;4992821;28;20389;-77
2024/03/28 10:20:59;;;;;;;3.53;3.23;;;;;;;13.13;62.67;98084.94;4994441;28;20396;-76
2024/03/28 10:23:25;;;;;;;4.27;3.20;;;;;;;13.03;63.13;98074.94;4994822;28;20207;-78
2024/03/28 10:25:51;;;;;;;3.27;3.03;;;;;;;14.49;60.39;98063.00;4987655;28;20485;-78
2024/03/28 10:28:21;;;;;;;3.03;2.77;;;;;;;15.02;58.05;98049.03;4975903;28;20211;-76
2024/03/28 10:30:53;;;;;;;3.87;2.70;;;;;;;16.15;54.56;98039.44;4976460;28;20415;-76
2024/03/28 10:33:22;;;;;;;3.13;2.93;;;;;;;16.90;54.75;98027.28;4974814;28;20397;-77
2024/03/28 10:35:58;;;;;;;2.87;2.60;;;;;;;16.65;52.81;98026.09;4973569;28;20528;-75
2024/03/28 10:38:24;;;;;;;2.93;2.60;;;;;;;15.94;54.00;98035.38;4974721;28;20390;-77
2024/03/28 10:40:59;;;;;;;2.40;2.10;;;;;;;16.28;52.93;98038.75;4973605;28;20960;-75
2024/03/28 10:43:26;;;;;;;2.70;2.50;;;;;;;16.69;52.79;98046.03;4974083;28;20542;-76
2024/03/28 10:45:59;;;;;;;3.10;2.80;;;;;;;17.41;51.81;98042.66;4973921;28;20443;-77
2024/03/28 10:48:25;;;;;;;3.17;2.53;;;;;;;15.83;53.07;98044.72;4964107;28;20416;-77
2024/03/28 10:51:08;;;;;;;2.87;2.67;;;;;;;15.94;53.32;98038.88;4955775;28;20416;-77
2024/03/28 10:53:43;;;;;;;3.20;2.90;;;;;;;15.64;52.99;98031.72;4955812;29;20416;-78
2024/03/28 10:56:12;;;;;;;3.47;2.57;;;;;;;15.34;53.82;98042.09;4955926;29;20435;-76
2024/03/28 10:58:38;;;;;;;2.80;2.60;;;;;;;15.27;54.37;98053.88;4955953;29;20777;-76
2024/03/28 11:01:07;;;;;;;2.90;2.60;;;;;;;14.76;54.64;98049.47;4958492;28;20432;-77
2024/03/28 11:03:33;;;;;;;3.20;2.90;;;;;;;15.92;54.29;98030.22;4954216;29;20456;-77
2024/03/28 11:05:58;;;;;;;2.80;2.60;;;;;;;17.64;48.99;98022.78;4954262;28;20484;-77
2024/03/28 11:08:28;;;;;;;2.67;2.47;;;;;;;16.65;51.15;98028.72;4983986;28;20501;-79
2024/03/28 11:10:59;;;;;;;3.00;2.70;;;;;;;15.69;52.39;98043.75;4993672;28;20584;-74
2024/03/28 11:13:24;;;;;;;2.70;2.50;;;;;;;15.43;53.48;98049.50;4992278;28;21005;-77
2024/03/28 11:16:04;;;;;;;3.27;2.97;;;;;;;15.56;53.25;98046.19;4994319;28;20462;-77
2024/03/28 11:18:31;;;;;;;3.57;2.97;;;;;;;15.42;52.99;98049.56;4994488;28;20624;-78
2024/03/28 11:20:57;;;;;;;4.57;3.33;;;;;;;17.17;50.77;98045.88;4992055;28;20481;-77
2024/03/28 11:23:22;;;;;;;4.17;3.30;;;;;;;16.64;50.16;98053.31;4994733;28;20454;-77
2024/03/28 11:25:48;;;;;;;3.20;2.90;;;;;;;17.08;47.68;98057.78;4993867;28;20202;-77
2024/03/28 11:28:14;;;;;;;6.73;3.30;;;;;;;18.07;45.95;98056.97;4993409;28;20179;-77